Terminal Aerodrome Forecast
Issued by NWS

Current Version | Previous Version | Text Only | Print | Product List | Glossary On
Versions: 1 2 3 4 5 6 7 8 9 10 11 12
368
FTUS41 KPHI 241120
TAFPNE
TAF
KPNE 241120Z 2412/2512 VRB03KT P6SM SKC
     FM241500 13008KT P6SM SCT250
     FM241800 12012G18KT P6SM BKN150
     FM242100 12012KT P6SM OVC080
     FM250000 10010KT 5SM -RA OVC050
     FM250400 08009KT 3SM -RA BR OVC015
     FM250900 08009KT 2SM RA BR OVC008=

USA.gov is the U.S. government's official web portal to all federal, state and local government web resources and services.